Riverside, CA

1:04 PM PST on December 25, 2014 (GMT -0800)
Highgrove, Ca | Change Station
CLOSE
Current Station
Personal Weather Station
Location: Riverside, CA
Elevation: 1129 ft
Nearby Weather Stations
Active Advisory: Wind Advisory

Elev 1129 ft 34.01 °N, 117.31 °W | Updated 0 second ago

Clear
Clear
60.3 °F
Feels Like 60.3 °F
N
16.3
Wind Variable Wind from North
Gusts 23.5 mph

Today
High -- | Low -- °F
--% Chance of Precip.
Yesterday
High -- | Low -- °F
Precip. -- in
6:52 AM 4:46 PM
Waxing Crescent, 19% visible
Pressure 29.79 in
Visibility 10.0 miles
Clouds Clear
Dew Point 24 °F
Humidity 25%
Rainfall 0.00 in
Snow Depth Not available.
UV 2.0 out of 12
Pollen 6.60 out of 12
Air Quality Not available.
Flu Activity Not available.
METAR KRAL 252053Z 03012G23KT 360V060 10SM CLR 16/M11 A2981 RMK AO2 PK WND 04028/2000 SLP086 T01611106 58016

More Conditions Fewer Conditions

Pressure 29.79 in
Visibility 10.0 miles
Clouds Clear
Dew Point 24 °F
Humidity 25%
Rainfall 0.00 in
Snow Depth Not available.
UV 2.0 out of 12
Pollen 6.60 out of 12
Air Quality Not available.
Flu Activity Not available.
METAR KRAL 252053Z 03012G23KT 360V060 10SM CLR 16/M11 A2981 RMK AO2 PK WND 04028/2000 SLP086 T01611106 58016

More Conditions Fewer Conditions

10-Day Weather Forecast

Almanac

Astronomy

Dec. 25, 2014 Rise Set
Actual Time
Civil Twilight
Nautical Twilight
Astronomical Twilight
Moon
Length of Visible Light
Length of Day
Tomorrow will be .
, % of the Moon is Illuminated

Today's Extremes

State Highs State Lows

Community

WunderPhotos

Upload Photos

1,780,397 photos uploaded!

WunderBlogs® & News

Nearby

Air Quality

  Air Quality AQ Index Pollutant
Not available.

Snow Depth

Station Depth Elevation

Earthquake Activity

City Distance Mag. Time & Date
Minimum magnitude displayed is 2.5.

Coastal Water Temperatures

Place Temperature

Nearby Weather Stations